Time;durP1;ratioP1;P1;durP2;ratioP2;P2;SDS_P1;SDS_P2;PMS_P1;PMS_P2;Temp;Humidity;BMP_temperature;BMP_pressure;BME280_temperature;BME280_humidity;BME280_pressure;Samples;Min_cycle;Max_cycle;Signal;HPM_P1;HPM_P2
2022/09/27 00:01:26;;;;;;;10.32;4.50;;;;;;;8.13;100.00;99517.00;6068233;23;20010;-88
2022/09/27 00:03:54;;;;;;;13.32;4.90;;;;;;;8.17;100.00;99526.47;6067965;23;20085;-90
2022/09/27 00:06:23;;;;;;;11.25;5.10;;;;;;;8.24;100.00;99534.91;6093334;23;20048;-89
2022/09/27 00:08:48;;;;;;;16.98;4.85;;;;;;;8.24;100.00;99537.56;6091976;23;20030;-87
2022/09/27 00:11:24;;;;;;;15.05;5.00;;;;;;;8.29;100.00;99540.75;6092138;23;20009;-93
2022/09/27 00:13:50;;;;;;;9.93;5.32;;;;;;;8.31;100.00;99532.69;6092919;23;20114;-91
2022/09/27 00:16:15;;;;;;;14.80;4.13;;;;;;;8.18;100.00;99514.91;6093401;23;20737;-90
2022/09/27 00:18:41;;;;;;;8.40;3.80;;;;;;;8.19;100.00;99526.34;6092535;23;20009;-92
2022/09/27 00:21:09;;;;;;;9.93;4.25;;;;;;;8.25;100.00;99541.91;6092626;23;20434;-89
2022/09/27 00:23:35;;;;;;;10.30;3.80;;;;;;;8.20;100.00;99536.88;6092373;23;20014;-89
2022/09/27 00:26:00;;;;;;;9.88;3.60;;;;;;;8.20;100.00;99547.50;6092201;23;20489;-90
2022/09/27 00:28:27;;;;;;;9.63;3.63;;;;;;;8.19;100.00;99551.09;6091431;23;20030;-90
2022/09/27 00:30:53;;;;;;;11.18;3.88;;;;;;;8.17;100.00;99545.03;6092565;23;20049;-88
2022/09/27 00:33:19;;;;;;;10.02;3.95;;;;;;;8.18;100.00;99552.00;6092729;23;20010;-88
2022/09/27 00:35:44;;;;;;;10.95;3.75;;;;;;;8.16;100.00;99555.72;6068034;23;20301;-88
2022/09/27 00:38:10;;;;;;;9.73;3.40;;;;;;;8.20;100.00;99558.09;6091402;23;20086;-90
2022/09/27 00:40:36;;;;;;;7.93;3.38;;;;;;;8.13;100.00;99562.06;6092513;23;20018;-90
2022/09/27 00:43:01;;;;;;;10.18;3.53;;;;;;;8.16;100.00;99574.28;6092940;23;20010;-89
2022/09/27 00:45:27;;;;;;;10.95;3.80;;;;;;;8.18;100.00;99580.31;6092741;23;20032;-88
2022/09/27 00:48:03;;;;;;;8.70;2.97;;;;;;;8.12;100.00;99568.31;6097692;23;20033;-89
2022/09/27 00:50:38;;;;;;;7.47;2.90;;;;;;;8.05;100.00;99540.47;6085390;23;20010;-89
2022/09/27 00:53:17;;;;;;;5.88;2.67;;;;;;;8.01;100.00;99548.69;6112342;23;20017;-92
2022/09/27 00:55:48;;;;;;;7.07;2.10;;;;;;;8.03;100.00;99550.31;6087511;23;20077;-92
2022/09/27 00:58:17;;;;;;;5.75;1.70;;;;;;;7.96;100.00;99554.28;6092440;23;20068;-92
2022/09/27 01:00:47;;;;;;;7.18;1.67;;;;;;;7.98;100.00;99553.25;6092805;23;20014;-90
2022/09/27 01:03:22;;;;;;;6.40;1.23;;;;;;;7.88;100.00;99541.50;6093043;23;20063;-90
2022/09/27 01:05:48;;;;;;;5.90;1.52;;;;;;;7.93;100.00;99549.16;6093958;23;20490;-91
2022/09/27 01:08:13;;;;;;;5.53;1.60;;;;;;;7.97;100.00;99561.28;6092787;23;20309;-89
2022/09/27 01:10:52;;;;;;;4.63;1.90;;;;;;;7.95;100.00;99569.34;6092792;23;20006;-89
2022/09/27 01:13:28;;;;;;;5.00;1.90;;;;;;;7.99;100.00;99564.69;6066219;23;20010;-89
2022/09/27 01:16:34;;;;;;;9.57;2.13;;;;;;;7.93;100.00;99565.06;6067016;23;20017;-89
2022/09/27 01:19:02;;;;;;;7.22;1.70;;;;;;;7.98;100.00;99569.16;6094230;23;20149;-90
2022/09/27 01:21:55;;;;;;;4.78;1.95;;;;;;;7.95;100.00;99568.47;6092554;23;20085;-89
2022/09/27 01:24:48;;;;;;;7.30;1.92;;;;;;;7.92;100.00;99566.00;6066597;23;20010;-89
2022/09/27 01:27:19;;;;;;;7.57;1.98;;;;;;;7.90;100.00;99566.13;6091216;23;20034;-89
2022/09/27 01:30:01;;;;;;;8.50;2.35;;;;;;;7.89;100.00;99563.53;6092561;23;20422;-90
2022/09/27 01:32:53;;;;;;;4.20;1.85;;;;;;;7.76;100.00;99542.22;6066668;23;20547;-89
2022/09/27 01:35:37;;;;;;;5.15;1.75;;;;;;;7.82;100.00;99562.22;6066360;23;20085;-89
2022/09/27 01:38:18;;;;;;;7.30;1.88;;;;;;;7.88;100.00;99575.09;6091219;23;20002;-89
2022/09/27 01:41:00;;;;;;;7.78;1.85;;;;;;;7.83;100.00;99570.06;6091576;23;20062;-90
2022/09/27 01:43:37;;;;;;;11.35;2.35;;;;;;;7.87;100.00;99579.53;6091401;23;20002;-88
2022/09/27 01:46:17;;;;;;;7.70;2.13;;;;;;;7.83;100.00;99583.31;6093063;23;20002;-88
2022/09/27 01:48:46;;;;;;;5.00;1.92;;;;;;;7.76;100.00;99574.00;6090257;23;20017;-89
2022/09/27 01:51:30;;;;;;;7.90;2.00;;;;;;;7.78;100.00;99582.75;6095454;23;20016;-89
2022/09/27 01:54:01;;;;;;;8.05;2.10;;;;;;;7.78;100.00;99593.34;6072732;23;20010;-89
2022/09/27 01:56:34;;;;;;;5.72;2.20;;;;;;;7.70;100.00;99595.59;6104170;23;20110;-88
2022/09/27 01:59:03;;;;;;;10.00;2.00;;;;;;;7.69;100.00;99593.84;6103037;23;20016;-87
2022/09/27 02:01:33;;;;;;;6.13;2.03;;;;;;;7.64;100.00;99591.47;6111911;23;20005;-90
2022/09/27 02:04:02;;;;;;;9.10;1.88;;;;;;;7.60;100.00;99591.75;6115200;23;20014;-89
2022/09/27 02:06:33;;;;;;;7.10;1.80;;;;;;;7.59;100.00;99598.00;6109105;23;20021;-89
2022/09/27 02:09:05;;;;;;;9.93;2.08;;;;;;;7.57;100.00;99603.38;6090584;23;20070;-89
2022/09/27 02:11:31;;;;;;;4.72;1.60;;;;;;;7.56;100.00;99600.81;6091185;23;20022;-89
2022/09/27 02:14:06;;;;;;;9.85;2.22;;;;;;;7.49;100.00;99581.81;6092947;23;20006;-88
2022/09/27 02:17:27;;;;;;;7.97;1.70;;;;;;;7.43;100.00;99580.34;6068464;23;20006;-87
2022/09/27 02:20:17;;;;;;;6.72;2.00;;;;;;;7.50;100.00;99599.38;5975932;24;20468;-88
2022/09/27 02:23:01;;;;;;;5.70;1.52;;;;;;;7.47;100.00;99594.25;5970457;24;20039;-88
2022/09/27 02:25:59;;;;;;;5.72;1.83;;;;;;;7.45;100.00;99597.00;5975555;24;20435;-88
2022/09/27 02:28:27;;;;;;;7.82;1.60;;;;;;;7.45;100.00;99606.75;5970675;24;20048;-88
2022/09/27 02:30:54;;;;;;;6.65;1.40;;;;;;;7.41;100.00;99600.78;5974653;24;20068;-87
2022/09/27 02:33:23;;;;;;;5.50;1.65;;;;;;;7.31;100.00;99589.00;5974304;24;20008;-88
2022/09/27 02:35:48;;;;;;;4.18;1.65;;;;;;;7.26;100.00;99580.47;5975170;24;20012;-87
2022/09/27 02:38:15;;;;;;;4.22;1.40;;;;;;;7.33;100.00;99589.78;5974184;24;20015;-88
2022/09/27 02:40:43;;;;;;;4.88;1.40;;;;;;;7.34;100.00;99590.63;5975841;24;20016;-88
2022/09/27 02:43:09;;;;;;;5.25;1.40;;;;;;;7.34;100.00;99587.97;5975163;24;20711;-87
2022/09/27 02:46:04;;;;;;;6.72;1.42;;;;;;;7.36;100.00;99596.69;5974642;24;20076;-88
2022/09/27 02:48:38;;;;;;;6.68;1.33;;;;;;;7.24;100.00;99592.94;5972013;24;20564;-88
2022/09/27 02:51:03;;;;;;;;;;;;;;;7.35;100.00;99621.44;5974800;24;20019;-88
2022/09/27 02:53:40;;;;;;;4.37;1.50;;;;;;;7.35;100.00;99617.00;6008401;23;20347;-87
2022/09/27 02:56:23;;;;;;;3.75;1.30;;;;;;;7.33;100.00;99612.75;6090517;23;20238;-87
2022/09/27 02:59:04;;;;;;;2.88;1.45;;;;;;;7.22;100.00;99598.31;6091634;23;20338;-88
2022/09/27 03:01:32;;;;;;;6.55;1.40;;;;;;;7.15;100.00;99598.78;6090786;23;20010;-87
2022/09/27 03:04:22;;;;;;;5.72;1.40;;;;;;;7.06;100.00;99593.97;6091506;23;20010;-88
2022/09/27 03:06:50;;;;;;;5.70;1.42;;;;;;;6.99;100.00;99583.75;6090833;23;20014;-88
2022/09/27 03:09:19;;;;;;;5.45;1.92;;;;;;;6.92;100.00;99598.25;6091716;23;20029;-89
2022/09/27 03:11:44;;;;;;;5.10;1.42;;;;;;;6.91;100.00;99596.56;6092206;23;20033;-88
2022/09/27 03:14:09;;;;;;;7.43;1.40;;;;;;;6.89;100.00;99594.91;6091878;23;20429;-87
2022/09/27 03:16:35;;;;;;;5.45;1.67;;;;;;;6.85;100.00;99601.31;6091934;23;20460;-89
2022/09/27 03:19:00;;;;;;;5.97;1.67;;;;;;;6.83;100.00;99598.75;6068663;23;20012;-88
2022/09/27 03:21:25;;;;;;;7.50;2.05;;;;;;;6.81;100.00;99595.34;6095075;23;20003;-87
2022/09/27 03:23:51;;;;;;;5.03;1.83;;;;;;;6.76;100.00;99593.88;6106144;23;19990;-89
2022/09/27 03:26:16;;;;;;;7.88;1.90;;;;;;;6.79;100.00;99599.03;6079323;23;20086;-88
2022/09/27 03:28:41;;;;;;;6.43;2.00;;;;;;;6.76;100.00;99600.03;6074779;23;20017;-88
2022/09/27 03:31:07;;;;;;;6.07;2.10;;;;;;;6.76;100.00;99600.03;6099561;23;20081;-88
2022/09/27 03:33:32;;;;;;;8.57;1.95;;;;;;;6.75;100.00;99606.25;6072364;23;20002;-88
2022/09/27 03:35:57;;;;;;;7.28;1.92;;;;;;;6.59;100.00;99585.09;6101084;23;20011;-87
2022/09/27 03:38:23;;;;;;;4.97;1.95;;;;;;;6.74;100.00;99612.50;6073952;23;19998;-89
2022/09/27 03:40:48;;;;;;;7.03;2.28;;;;;;;6.72;100.00;99604.63;6109144;23;20046;-87
2022/09/27 03:43:13;;;;;;;6.75;2.00;;;;;;;6.83;100.00;99614.63;6110227;23;20061;-89
2022/09/27 03:45:38;;;;;;;6.95;2.10;;;;;;;6.87;100.00;99613.53;6075055;23;20325;-88
2022/09/27 03:48:04;;;;;;;7.45;2.08;;;;;;;6.77;100.00;99596.44;6100071;23;20009;-88
2022/09/27 03:50:29;;;;;;;6.20;1.92;;;;;;;6.95;100.00;99608.66;6101926;23;20164;-89
2022/09/27 03:52:54;;;;;;;6.80;2.10;;;;;;;6.95;100.00;99605.16;6089050;23;20038;-89
2022/09/27 03:55:20;;;;;;;6.30;2.08;;;;;;;7.02;100.00;99613.59;6085639;23;20014;-87
2022/09/27 03:57:45;;;;;;;6.72;2.13;;;;;;;7.04;100.00;99624.97;6094093;23;20006;-87
2022/09/27 04:00:11;;;;;;;8.05;2.20;;;;;;;7.07;100.00;99632.75;6094308;23;20006;-87
2022/09/27 04:02:37;;;;;;;9.43;2.10;;;;;;;7.11;100.00;99629.00;6094170;23;20006;-87
2022/09/27 04:05:02;;;;;;;7.75;2.10;;;;;;;7.09;100.00;99628.19;6096359;23;20015;-88
2022/09/27 04:07:30;;;;;;;4.63;1.77;;;;;;;7.12;100.00;99636.81;6094877;23;20456;-89
2022/09/27 04:09:55;;;;;;;6.88;2.10;;;;;;;7.11;100.00;99635.13;6096470;23;20002;-89
2022/09/27 04:12:20;;;;;;;13.80;4.45;;;;;;;7.14;100.00;99644.66;6098446;23;20444;-87
2022/09/27 04:14:46;;;;;;;7.20;2.50;;;;;;;7.23;100.00;99655.63;6096533;23;20373;-87
2022/09/27 04:17:11;;;;;;;19.52;6.53;;;;;;;7.24;100.00;99652.03;6093487;23;20053;-88
2022/09/27 04:19:36;;;;;;;9.50;2.10;;;;;;;7.27;100.00;99669.50;6094971;23;20019;-88
2022/09/27 04:22:02;;;;;;;9.80;2.30;;;;;;;7.27;100.00;99669.50;6093883;23;20010;-87
2022/09/27 04:24:27;;;;;;;14.88;2.58;;;;;;;7.26;100.00;99670.44;6067713;23;20083;-87
2022/09/27 04:26:52;;;;;;;10.25;2.20;;;;;;;7.20;100.00;99654.94;6092360;23;20421;-90
2022/09/27 04:29:18;;;;;;;7.57;1.85;;;;;;;7.19;100.00;99643.50;6067311;23;20002;-87
2022/09/27 04:31:43;;;;;;;5.68;1.60;;;;;;;7.16;100.00;99648.94;6073666;23;20054;-86
2022/09/27 04:34:09;;;;;;;6.70;1.90;;;;;;;7.15;100.00;99644.59;6101205;23;20010;-87
2022/09/27 04:36:35;;;;;;;5.13;1.70;;;;;;;7.12;100.00;99641.28;6075807;23;20002;-88
2022/09/27 04:39:04;;;;;;;9.30;3.47;;;;;;;7.06;100.00;99639.81;6108752;23;20007;-89
2022/09/27 04:41:30;;;;;;;7.45;3.40;;;;;;;6.97;100.00;99614.72;6117108;23;20033;-88
2022/09/27 04:43:57;;;;;;;7.88;2.70;;;;;;;7.05;100.00;99630.16;6116361;23;19995;-89
2022/09/27 04:46:23;;;;;;;10.05;2.30;;;;;;;7.06;100.00;99625.72;6108793;23;20459;-89
2022/09/27 04:48:49;;;;;;;5.63;2.00;;;;;;;7.04;100.00;99623.16;6095241;23;19999;-89
2022/09/27 04:51:16;;;;;;;4.00;1.60;;;;;;;7.04;100.00;99631.09;6094672;23;20069;-88
2022/09/27 04:53:42;;;;;;;4.18;1.80;;;;;;;7.03;100.00;99625.91;6095521;23;20038;-88
2022/09/27 04:56:07;;;;;;;3.83;1.58;;;;;;;6.99;100.00;99625.22;6094703;23;20014;-87
2022/09/27 04:58:33;;;;;;;6.00;1.55;;;;;;;6.97;100.00;99627.94;6094011;23;20078;-88
2022/09/27 05:01:01;;;;;;;7.25;1.65;;;;;;;6.90;100.00;99623.09;6094022;23;20108;-88
2022/09/27 05:03:27;;;;;;;4.25;1.40;;;;;;;6.85;100.00;99618.03;6095755;23;20003;-87
2022/09/27 05:05:52;;;;;;;4.82;1.20;;;;;;;6.86;100.00;99635.63;6067421;23;20007;-87
2022/09/27 05:08:17;;;;;;;3.95;1.33;;;;;;;6.83;100.00;99627.00;6066707;23;20396;-88
2022/09/27 05:10:43;;;;;;;4.82;1.63;;;;;;;6.84;100.00;99634.00;6093224;23;20045;-88
2022/09/27 05:13:08;;;;;;;4.82;1.58;;;;;;;6.89;100.00;99646.03;6091643;23;20418;-86
2022/09/27 05:15:35;;;;;;;5.82;1.70;;;;;;;6.90;100.00;99655.69;6092543;23;20014;-88
2022/09/27 05:18:00;;;;;;;7.03;2.95;;;;;;;6.85;100.00;99646.28;6067309;23;20008;-87
2022/09/27 05:20:26;;;;;;;4.72;1.92;;;;;;;6.91;100.00;99662.69;6092810;23;20006;-84
2022/09/27 05:22:52;;;;;;;5.45;1.42;;;;;;;6.89;100.00;99653.09;6066707;23;20009;-84
2022/09/27 05:25:17;;;;;;;4.80;1.45;;;;;;;6.90;100.00;99670.72;6064742;23;20216;-84
2022/09/27 05:27:42;;;;;;;4.13;1.33;;;;;;;6.89;100.00;99674.25;6091173;23;20052;-85
2022/09/27 05:30:08;;;;;;;4.28;1.58;;;;;;;6.86;100.00;99670.00;6091659;23;20418;-85
2022/09/27 05:32:34;;;;;;;6.03;2.40;;;;;;;6.87;100.00;99673.50;6091270;23;20010;-84
2022/09/27 05:34:59;;;;;;;4.05;1.50;;;;;;;6.86;100.00;99661.22;6090855;23;20029;-86
2022/09/27 05:37:24;;;;;;;4.38;1.60;;;;;;;6.88;100.00;99665.47;6091321;23;20009;-87
2022/09/27 05:39:50;;;;;;;7.05;2.00;;;;;;;6.86;100.00;99655.94;6090727;23;20085;-86
2022/09/27 05:42:16;;;;;;;4.20;1.30;;;;;;;6.93;100.00;99666.06;6091028;23;20006;-88
2022/09/27 05:44:47;;;;;;;3.97;1.40;;;;;;;6.87;100.00;99660.28;6065616;23;20333;-87
2022/09/27 05:47:13;;;;;;;2.88;1.48;;;;;;;6.90;100.00;99663.63;6064424;23;20022;-86
2022/09/27 05:49:39;;;;;;;3.85;1.50;;;;;;;6.88;100.00;99660.19;6065644;23;20089;-87
2022/09/27 05:52:04;;;;;;;3.10;1.48;;;;;;;6.86;100.00;99662.09;6064429;23;20030;-86
2022/09/27 05:54:30;;;;;;;4.43;1.50;;;;;;;6.87;100.00;99662.94;6063875;23;20061;-87
2022/09/27 05:56:57;;;;;;;1.38;1.20;;;;;;;6.90;100.00;99670.72;6089184;23;20437;-87
2022/09/27 05:59:23;;;;;;;5.28;1.73;;;;;;;6.86;100.00;99669.16;6089923;23;20069;-87
2022/09/27 06:01:49;;;;;;;4.63;1.88;;;;;;;6.87;100.00;99677.00;6089780;23;20002;-87
2022/09/27 06:04:14;;;;;;;4.88;1.50;;;;;;;6.81;100.00;99669.38;6090917;23;20014;-87
2022/09/27 06:06:40;;;;;;;2.33;1.25;;;;;;;6.90;100.00;99676.00;6090641;23;20433;-87
2022/09/27 06:09:09;;;;;;;2.92;1.50;;;;;;;6.85;100.00;99654.22;6091124;23;20061;-87
2022/09/27 06:11:35;;;;;;;3.42;1.88;;;;;;;6.90;100.00;99662.78;6094040;23;20069;-87
2022/09/27 06:14:00;;;;;;;5.13;2.38;;;;;;;6.90;100.00;99678.66;6095801;23;20007;-87
2022/09/27 06:16:25;;;;;;;2.70;1.70;;;;;;;6.90;100.00;99663.63;6108719;23;20057;-86
2022/09/27 06:18:51;;;;;;;4.40;1.70;;;;;;;6.92;100.00;99668.81;6082037;23;20003;-88
2022/09/27 06:21:16;;;;;;;3.33;1.50;;;;;;;6.94;100.00;99672.25;6084963;23;20373;-87
2022/09/27 06:23:41;;;;;;;3.28;1.70;;;;;;;6.89;100.00;99667.19;6102861;23;20002;-87
2022/09/27 06:26:07;;;;;;;2.75;1.60;;;;;;;6.94;100.00;99672.25;6091506;23;20014;-88
2022/09/27 06:28:34;;;;;;;4.65;1.80;;;;;;;6.95;100.00;99669.50;6092598;23;20147;-87
2022/09/27 06:30:59;;;;;;;3.80;2.03;;;;;;;6.92;100.00;99671.47;6093661;23;20076;-87
2022/09/27 06:33:27;;;;;;;3.90;2.35;;;;;;;6.88;100.00;99665.47;6092942;23;20457;-86
2022/09/27 06:35:53;;;;;;;4.10;2.95;;;;;;;6.96;100.00;99679.16;6092250;23;20006;-87
2022/09/27 06:38:20;;;;;;;5.10;3.30;;;;;;;6.96;100.00;99678.28;6091070;23;20077;-84
2022/09/27 06:40:46;;;;;;;3.88;3.30;;;;;;;6.92;100.00;99666.19;6090091;23;20029;-85
2022/09/27 06:43:18;;;;;;;5.70;3.30;;;;;;;6.94;100.00;99667.81;6065633;23;20007;-85
2022/09/27 06:45:43;;;;;;;5.20;3.50;;;;;;;6.91;100.00;99661.81;6091239;23;20006;-85
2022/09/27 06:48:11;;;;;;;8.23;4.07;;;;;;;6.92;100.00;99660.88;6090650;23;20311;-86
2022/09/27 06:50:39;;;;;;;7.15;4.47;;;;;;;6.98;100.00;99674.63;6091149;23;20006;-85
2022/09/27 06:53:05;;;;;;;6.10;4.00;;;;;;;6.93;100.00;99668.72;6064961;23;20468;-88
2022/09/27 06:55:31;;;;;;;5.35;3.72;;;;;;;6.88;100.00;99678.72;6064109;23;20010;-86
2022/09/27 07:00:42;;;;;;;5.40;4.13;;;;;;;6.87;100.00;99674.38;6090931;23;20025;-85
2022/09/27 07:03:12;;;;;;;6.57;4.43;;;;;;;6.95;100.00;99698.59;6088240;23;20015;-85
2022/09/27 07:05:37;;;;;;;6.38;3.85;;;;;;;6.96;100.00;99691.53;6090628;23;20006;-87
2022/09/27 07:08:04;;;;;;;5.18;3.55;;;;;;;6.96;100.00;99692.38;6103375;23;20010;-88
2022/09/27 07:10:33;;;;;;;7.63;3.97;;;;;;;6.96;100.00;99681.78;6107041;23;20018;-85
2022/09/27 07:13:09;;;;;;;6.38;4.05;;;;;;;7.02;100.00;99677.09;6081041;23;20021;-87
2022/09/27 07:15:35;;;;;;;8.35;4.97;;;;;;;7.08;100.00;99690.00;6083593;23;20011;-87
2022/09/27 07:18:01;;;;;;;6.15;4.40;;;;;;;7.17;100.00;99686.84;6105109;23;20025;-86
2022/09/27 07:20:28;;;;;;;8.13;4.40;;;;;;;7.27;100.00;99676.59;6106001;23;20017;-87
2022/09/27 07:22:54;;;;;;;8.57;5.30;;;;;;;7.37;100.00;99697.19;6103750;23;20002;-86
2022/09/27 07:25:19;;;;;;;9.55;4.82;;;;;;;7.46;100.00;99694.00;6079764;23;20013;-89
2022/09/27 07:27:45;;;;;;;7.60;4.82;;;;;;;7.51;100.00;99688.47;6112624;23;20006;-87
2022/09/27 07:30:11;;;;;;;7.47;5.00;;;;;;;7.55;100.00;99697.09;6096910;23;20002;-85
2022/09/27 07:32:36;;;;;;;8.63;5.45;;;;;;;7.58;100.00;99684.53;6095090;23;20006;-87
2022/09/27 07:35:06;;;;;;;8.63;5.43;;;;;;;7.56;100.00;99680.25;6070453;23;20293;-87
2022/09/27 07:37:33;;;;;;;7.55;5.80;;;;;;;7.65;100.00;99693.84;6095466;23;19999;-88
2022/09/27 07:39:59;;;;;;;7.40;5.65;;;;;;;7.66;100.00;99692.88;6068910;23;20167;-87
2022/09/27 07:42:25;;;;;;;7.97;6.55;;;;;;;7.82;100.00;99692.03;6068400;23;20002;-84
2022/09/27 07:44:50;;;;;;;10.48;7.05;;;;;;;7.85;100.00;99699.78;6093281;23;20018;-82
2022/09/27 07:47:17;;;;;;;9.50;8.00;;;;;;;7.87;100.00;99688.16;6092827;23;20010;-87
2022/09/27 07:49:42;;;;;;;12.45;7.70;;;;;;;7.93;100.00;99687.78;6092133;23;20072;-87
2022/09/27 07:52:08;;;;;;;9.52;7.75;;;;;;;7.95;100.00;99704.47;6092185;23;20478;-87
2022/09/27 07:54:33;;;;;;;9.93;7.72;;;;;;;7.90;100.00;99698.59;6066363;23;20010;-86
2022/09/27 07:56:58;;;;;;;9.63;7.72;;;;;;;7.88;100.00;99700.44;6093818;23;20030;-87
2022/09/27 07:59:23;;;;;;;12.50;8.25;;;;;;;7.83;100.00;99693.72;6099524;23;20025;-86
2022/09/27 08:01:49;;;;;;;12.60;8.07;;;;;;;7.89;100.00;99707.44;6098753;23;20066;-86
2022/09/27 08:04:14;;;;;;;11.82;9.25;;;;;;;7.91;100.00;99710.88;6099604;23;20045;-87
2022/09/27 08:06:39;;;;;;;14.25;10.02;;;;;;;7.84;100.00;99703.38;6110599;23;20010;-86
2022/09/27 08:09:06;;;;;;;15.63;9.43;;;;;;;7.85;100.00;99721.81;6114338;23;19998;-86
2022/09/27 08:11:31;;;;;;;11.80;9.82;;;;;;;7.85;100.00;99721.81;6112886;23;20099;-86
2022/09/27 08:13:56;;;;;;;10.70;9.27;;;;;;;7.82;100.00;99714.06;6094337;23;20444;-86
2022/09/27 08:16:22;;;;;;;12.48;9.27;;;;;;;7.82;100.00;99719.38;6092764;23;20073;-86
2022/09/27 08:18:47;;;;;;;13.07;9.52;;;;;;;7.74;100.00;99709.19;6092053;23;20742;-86
2022/09/27 08:21:12;;;;;;;19.20;10.52;;;;;;;7.88;100.00;99729.59;6066366;23;20444;-86
2022/09/27 08:23:38;;;;;;;13.95;9.57;;;;;;;7.95;100.00;99730.97;6092446;23;20475;-87
2022/09/27 08:26:03;;;;;;;13.93;9.85;;;;;;;7.99;100.00;99734.28;6067431;23;20002;-87
2022/09/27 08:28:29;;;;;;;11.50;8.90;;;;;;;7.99;100.00;99734.28;6094309;23;20003;-86
2022/09/27 08:30:58;;;;;;;11.13;9.68;;;;;;;7.99;100.00;99731.63;6094339;23;20068;-86
2022/09/27 08:33:24;;;;;;;13.38;10.75;;;;;;;8.02;100.00;99734.09;6094013;23;20006;-86
2022/09/27 08:35:50;;;;;;;14.90;9.68;;;;;;;7.97;100.00;99731.69;6067460;23;20006;-87
2022/09/27 08:38:15;;;;;;;12.65;9.38;;;;;;;8.03;100.00;99732.31;6092596;23;20005;-87
2022/09/27 08:41:00;;;;;;;13.30;9.50;;;;;;;8.00;100.00;99733.34;6067213;23;20089;-87
2022/09/27 08:44:03;;;;;;;14.38;9.35;;;;;;;8.03;100.00;99734.97;6092674;23;20026;-86
2022/09/27 08:46:46;;;;;;;13.48;10.30;;;;;;;8.08;100.00;99741.69;6109573;23;19993;-87
2022/09/27 08:49:23;;;;;;;17.17;11.63;;;;;;;8.06;100.00;99732.13;6110862;23;19987;-86
2022/09/27 08:51:51;;;;;;;14.77;12.75;;;;;;;8.07;100.00;99733.81;6106851;23;20018;-87
2022/09/27 08:54:21;;;;;;;18.75;13.70;;;;;;;8.13;100.00;99736.97;6115496;23;19990;-87
2022/09/27 08:56:50;;;;;;;17.35;12.77;;;;;;;8.13;100.00;99728.19;6118334;23;19994;-87
2022/09/27 08:59:22;;;;;;;19.33;12.65;;;;;;;8.26;100.00;99731.81;6117699;23;20045;-87
2022/09/27 09:01:50;;;;;;;18.55;13.80;;;;;;;8.20;100.00;99716.28;6104553;23;20333;-84
2022/09/27 09:04:28;;;;;;;20.15;13.73;;;;;;;8.25;100.00;99724.81;6094031;23;20102;-87
2022/09/27 09:07:24;;;;;;;20.20;15.00;;;;;;;8.24;100.00;99729.25;6094360;23;20014;-88
2022/09/27 09:10:01;;;;;;;19.25;14.10;;;;;;;8.25;100.00;99727.47;6092303;23;20014;-88
2022/09/27 09:12:49;;;;;;;20.42;15.13;;;;;;;8.29;100.00;99736.94;6094351;23;20002;-87
2022/09/27 09:15:55;;;;;;;22.88;15.68;;;;;;;8.34;100.00;99737.50;6093213;23;20061;-87
2022/09/27 09:18:41;;;;;;;22.52;16.35;;;;;;;8.41;100.00;99733.59;6092859;23;20010;-87
2022/09/27 09:21:27;;;;;;;21.20;15.68;;;;;;;8.44;100.00;99738.72;6091434;23;20357;-88
2022/09/27 09:24:20;;;;;;;21.05;17.33;;;;;;;8.45;100.00;99736.91;6092500;23;20016;-88
2022/09/27 09:27:20;;;;;;;27.17;18.33;;;;;;;8.56;100.00;99741.56;6092097;23;20008;-87
2022/09/27 09:30:04;;;;;;;20.08;16.10;;;;;;;8.66;100.00;99745.38;6091263;23;20017;-87
2022/09/27 09:33:00;;;;;;;20.58;14.60;;;;;;;8.64;100.00;99742.81;6091715;23;20013;-87
2022/09/27 09:35:36;;;;;;;20.23;14.85;;;;;;;8.58;100.00;99753.81;6092353;23;20009;-87
2022/09/27 09:38:09;;;;;;;21.25;15.77;;;;;;;8.55;100.00;99740.72;6093217;23;20012;-86
2022/09/27 09:40:39;;;;;;;;;;;;;;;8.57;100.00;99748.56;6091592;23;20014;-87
2022/09/27 09:43:15;;;;;;;20.13;15.60;;;;;;;8.42;100.00;99729.13;6096119;23;20213;-86
2022/09/27 09:46:01;;;;;;;21.55;16.75;;;;;;;8.45;100.00;99734.25;6101950;23;20006;-87
2022/09/27 09:48:48;;;;;;;24.58;17.63;;;;;;;8.60;100.00;99745.75;6103871;23;20445;-87
2022/09/27 09:51:21;;;;;;;24.65;18.25;;;;;;;8.69;100.00;99746.06;6081863;23;20017;-87
2022/09/27 09:54:09;;;;;;;22.13;18.48;;;;;;;8.91;100.00;99744.75;6085876;23;20105;-88
2022/09/27 09:56:58;;;;;;;24.00;18.23;;;;;;;8.84;100.00;99752.22;6109623;23;20026;-86
2022/09/27 09:59:42;;;;;;;24.73;18.77;;;;;;;8.93;100.00;99748.16;6098113;23;20006;-86
2022/09/27 10:02:36;;;;;;;20.25;16.85;;;;;;;8.90;100.00;99749.19;6094722;23;20010;-88
2022/09/27 10:05:01;;;;;;;21.90;18.02;;;;;;;8.89;100.00;99752.78;6091695;23;20010;-87
2022/09/27 10:07:28;;;;;;;18.90;14.75;;;;;;;8.79;100.00;99754.31;6094933;23;20314;-88
2022/09/27 10:09:58;;;;;;;17.45;14.77;;;;;;;8.70;100.00;99746.91;6093395;23;20013;-87
2022/09/27 10:12:23;;;;;;;12.75;11.02;;;;;;;8.70;100.00;99760.19;6093028;23;20010;-87
2022/09/27 10:14:51;;;;;;;15.35;12.25;;;;;;;8.81;100.00;99751.53;6092614;23;20007;-87
2022/09/27 10:17:22;;;;;;;10.80;8.43;;;;;;;8.81;100.00;99748.88;6091877;23;20006;-88
2022/09/27 10:19:51;;;;;;;7.47;5.70;;;;;;;8.61;100.00;99747.44;6091597;23;20099;-87
2022/09/27 10:22:27;;;;;;;8.75;5.63;;;;;;;8.52;100.00;99755.94;6091664;23;20010;-86
2022/09/27 10:24:57;;;;;;;6.13;4.70;;;;;;;8.35;100.00;99751.63;6092291;23;20034;-87
2022/09/27 10:27:26;;;;;;;7.53;5.60;;;;;;;8.24;100.00;99749.63;6066372;23;20002;-88
2022/09/27 10:29:58;;;;;;;6.35;4.20;;;;;;;8.25;100.00;99751.31;6091044;23;20484;-90
2022/09/27 10:32:32;;;;;;;4.97;3.72;;;;;;;8.30;100.00;99759.00;6091964;23;20008;-88
2022/09/27 10:35:18;;;;;;;7.63;3.72;;;;;;;8.20;100.00;99751.59;6092152;23;20007;-88
2022/09/27 10:37:44;;;;;;;3.80;2.70;;;;;;;8.11;100.00;99756.53;6091522;23;20392;-87
2022/09/27 10:40:27;;;;;;;6.18;2.65;;;;;;;8.09;100.00;99761.09;6090782;23;20006;-88
2022/09/27 10:42:52;;;;;;;4.85;2.60;;;;;;;7.97;100.00;99768.81;6066723;23;20018;-87
2022/09/27 10:45:30;;;;;;;4.88;2.30;;;;;;;7.81;100.00;99749.41;6091647;23;20002;-91
2022/09/27 10:47:57;;;;;;;5.60;2.50;;;;;;;7.87;100.00;99757.03;6090771;23;20002;-88
2022/09/27 10:50:29;;;;;;;3.38;2.10;;;;;;;7.92;100.00;99768.22;6065521;23;20014;-88
2022/09/27 10:53:15;;;;;;;5.15;2.50;;;;;;;7.99;100.00;99752.84;6091689;23;20006;-89
2022/09/27 10:55:42;;;;;;;6.53;3.30;;;;;;;8.10;100.00;99765.44;6066286;23;20010;-89
2022/09/27 10:58:18;;;;;;;5.15;2.53;;;;;;;8.03;100.00;99749.06;6064702;23;20017;-88
2022/09/27 11:00:53;;;;;;;4.53;1.92;;;;;;;8.04;100.00;99757.88;6091300;23;20333;-88
2022/09/27 11:03:19;;;;;;;4.80;2.17;;;;;;;8.10;100.00;99768.09;6091855;23;20472;-87
2022/09/27 11:05:44;;;;;;;4.38;1.58;;;;;;;8.06;100.00;99759.47;6091470;23;20081;-87
2022/09/27 11:08:22;;;;;;;10.45;7.43;;;;;;;8.16;100.00;99765.09;6089189;23;20010;-88
2022/09/27 11:11:07;;;;;;;7.28;3.50;;;;;;;8.26;100.00;99758.31;6091634;23;20017;-88
2022/09/27 11:13:34;;;;;;;;;;;;;;;8.37;100.00;99763.88;6092133;23;20006;-88
2022/09/27 11:16:47;;;;;;;4.15;2.33;;;;;;;8.39;100.00;99764.63;6090614;23;19909;-88
2022/09/27 11:19:27;;;;;;;5.18;2.50;;;;;;;8.45;100.00;99763.44;6077709;23;20018;-89
2022/09/27 11:22:39;;;;;;;4.00;1.80;;;;;;;8.48;100.00;99756.16;6091394;23;20014;-89
2022/09/27 11:25:41;;;;;;;2.72;1.63;;;;;;;8.52;100.00;99750.66;6029257;23;20090;-89
2022/09/27 11:28:31;;;;;;;2.95;1.60;;;;;;;8.55;100.00;99745.16;6093793;23;20009;-89
2022/09/27 11:31:23;;;;;;;1.85;1.35;;;;;;;8.53;100.00;99744.38;6096545;23;20018;-87
2022/09/27 11:34:04;;;;;;;2.85;1.30;;;;;;;8.58;100.00;99737.88;6104328;23;20014;-88
2022/09/27 11:36:47;;;;;;;3.20;1.20;;;;;;;8.85;100.00;99748.59;6116160;23;20024;-88
2022/09/27 11:39:27;;;;;;;4.78;1.52;;;;;;;9.17;100.00;99743.97;6110393;23;20040;-90
2022/09/27 11:42:22;;;;;;;2.28;1.50;;;;;;;9.42;100.00;99726.50;6098726;23;20007;-88
2022/09/27 11:44:50;;;;;;;4.53;1.80;;;;;;;9.68;100.00;99735.44;6061573;23;20082;-88
2022/09/27 11:47:29;;;;;;;11.07;5.88;;;;;;;9.60;100.00;99732.41;6093841;23;20345;-88
2022/09/27 11:50:40;;;;;;;3.92;2.10;;;;;;;9.58;100.00;99734.34;6093991;23;20010;-87
2022/09/27 11:53:16;;;;;;;3.30;2.30;;;;;;;9.70;100.00;99729.09;6068551;23;20380;-87
2022/09/27 11:55:58;;;;;;;3.00;1.70;;;;;;;9.97;100.00;99721.09;6094222;23;20006;-87